Flight Track Log - Related Links

Times and Time Zones

All times are in EDT time to prevent confusion due to time zone crossing. See the RPA3392 flight status page for this flight to view local times or setup timezone preferences in your user account.

Time Position Orientation Groundspeed Altitude Reporting Facility
EDT Latitude Longitude Course Direction KTS MPH feet Rate Location/Type
Wed 07:12:24 PM 44.9000 -93.2333 117° Southeast 155 178 2,100  Level Minneapolis TRACON
Wed 07:13:12 PM 44.9408 -93.2328 North 164 189 2,800 1,745 Climbing Minneapolis Center
Wed 07:14:14 PM 44.9961 -93.2042 20° North 228 262 5,300 2,226 Climbing Minneapolis Center
Wed 07:15:00 PM 44.7211 -92.6370 113° Southeast  Level Estimated
Wed 07:15:16 PM 45.0058 -93.0953 83° East 280 322 7,400  Level Minneapolis Center
Wed 07:16:00 PM 44.6604 -92.5058 123° Southeast  Level FlightAware Approximate
Wed 07:16:18 PM 44.9700 -92.9603 111° Southeast 320 368 10,300  Level Minneapolis Center
Wed 07:17:00 PM 44.6075 -92.3580 117° Southeast  Level FlightAware Approximate
Wed 07:17:20 PM 44.9097 -92.8508 128° Southeast 349 402 12,100  Level Minneapolis Center
Wed 07:18:22 PM 44.8467 -92.7350 127° Southeast 368 423 14,400 2,064 Climbing Minneapolis Center
Wed 07:19:25 PM 44.7819 -92.6164 128° Southeast 377 434 16,400 1,920 Climbing Minneapolis Center
Wed 07:20:27 PM 44.7156 -92.4967 128° Southeast 390 449 18,400 1,839 Climbing Minneapolis Center
Wed 07:21:29 PM 44.6469 -92.3739 128° Southeast 398 458 20,200 1,548 Climbing Minneapolis Center
Wed 07:22:31 PM 44.5764 -92.2464 128° Southeast 409 471 21,600 1,548 Climbing Minneapolis Center
Wed 07:23:33 PM 44.4908 -92.0856 127° Southeast 427 491 23,400 1,500 Climbing Minneapolis Center
Wed 07:24:35 PM 44.4200 -91.9481 126° Southeast 435 501 24,700 1,258 Climbing Minneapolis Center
Wed 07:25:37 PM 44.3508 -91.8044 124° Southeast 444 511 26,000 1,161 Climbing Minneapolis Center
Wed 07:26:39 PM 44.2911 -91.6461 118° Southeast 458 527 27,100 1,016 Climbing Minneapolis Center
Wed 07:27:41 PM 44.2308 -91.4864 118° Southeast 465 535 28,100 919 Climbing Minneapolis Center
Wed 07:28:43 PM 44.1689 -91.3231 118° Southeast 473 544 29,000 435 Climbing Minneapolis Center
Wed 07:29:45 PM 44.1136 -91.1311 112° Southeast 479 551 29,000  Level Minneapolis Center
Wed 07:30:47 PM 44.0775 -90.9525 106° East 481 554 29,000 145 Level Minneapolis Center
Wed 07:31:49 PM 44.0411 -90.7758 106° East 480 552 29,300 768 Climbing Minneapolis Center
Wed 07:32:52 PM 43.9944 -90.5578 106° East 485 558 30,600 1,714 Climbing Minneapolis Center
Wed 07:33:55 PM 43.9572 -90.3878 107° East 477 549 32,900 1,152 Climbing Chicago Center
Wed 07:34:57 PM 43.9222 -90.2189 106° East 449 517 33,000 48 Climbing Chicago Center
Wed 07:35:59 PM 43.8847 -90.0503 107° East 457 526 33,000  Level Chicago Center
Wed 07:37:01 PM 43.8483 -89.8819 107° East 456 525 33,000  Level Chicago Center
Wed 07:38:03 PM 43.8042 -89.6867 107° East 455 524 33,000  Level Chicago Center
Wed 07:39:05 PM 43.7667 -89.5181 107° East 457 526 33,000  Level Chicago Center
Wed 07:40:07 PM 43.7297 -89.3508 107° East 456 525 33,000 97 Level Chicago Center
Wed 07:41:09 PM 43.6919 -89.1814 107° East 460 529 33,200 576 Climbing Chicago Center
Wed 07:42:12 PM 43.6550 -89.0178 107° East 449 517 34,200 864 Climbing Chicago Center
Wed 07:43:14 PM 43.6119 -88.8275 107° East 446 513 35,000 387 Climbing Chicago Center
Wed 07:44:16 PM 43.5744 -88.6636 107° East 449 517 35,000  Level Chicago Center
Wed 07:45:18 PM 43.5383 -88.5039 107° East 451 519 35,000  Level Chicago Center
Wed 07:46:20 PM 43.4956 -88.3211 108° East 459 528 35,000  Level Chicago Center
Wed 07:47:22 PM 43.4556 -88.1569 109° East 451 519 35,000  Level Chicago Center
Wed 07:48:24 PM 43.4161 -87.9944 108° East 448 516 35,000  Level Chicago Center
Wed 07:49:26 PM 43.3775 -87.8311 108° East 449 517 35,000  Level Chicago Center
Wed 07:50:29 PM 43.3381 -87.6692 108° East 447 514 35,000  Level Chicago Center
Wed 07:51:31 PM 43.2922 -87.4806 108° East 446 513 35,000  Level Chicago Center
Wed 07:52:33 PM 43.2528 -87.3200 109° East 448 516 35,000  Level Chicago Center
Wed 07:53:35 PM 43.2125 -87.1569 109° East 452 520 35,000  Level Chicago Center
Wed 07:54:37 PM 43.1708 -86.9919 109° East 452 520 35,000  Level Chicago Center
Wed 07:55:39 PM 43.1317 -86.8314 108° East 456 525 35,000  Level Chicago Center
Wed 07:56:41 PM 43.0914 -86.6719 109° East 449 517 35,000  Level Chicago Center
Wed 07:57:43 PM 43.0428 -86.4825 109° East 443 510 35,000  Level Chicago Center
Wed 07:58:45 PM 43.0017 -86.3256 110° East 442 509 35,000  Level Chicago Center
Wed 07:59:48 PM 42.9603 -86.1700 110° East 443 510 35,000  Level Chicago Center
Wed 08:00:50 PM 42.9186 -86.0133 110° East 450 518 35,000  Level Chicago Center
Wed 08:01:52 PM 42.8725 -85.8242 108° East 450 518 35,000  Level Chicago Center
Wed 08:02:54 PM 42.8317 -85.6656 109° East 449 517 35,000  Level Chicago Center
Wed 08:03:56 PM 42.7892 -85.5061 110° East 449 517 35,000  Level Chicago Center
Wed 08:04:59 PM 42.7375 -85.3547 115° Southeast 445 512 35,000  Level Chicago Center
Wed 08:06:00 PM 42.6850 -85.2031 115° Southeast 444 511 35,000  Level Chicago Center
Wed 08:07:02 PM 42.6203 -85.0208 116° Southeast 447 514 35,000  Level Chicago Center
Wed 08:08:04 PM 42.5669 -84.8703 116° Southeast 443 510 35,000  Level Chicago Center
Wed 08:09:08 PM 42.5147 -84.7178 115° Southeast 445 512 35,000  Level Chicago Center
Wed 08:10:09 PM 42.4597 -84.5675 116° Southeast 447 514 35,000  Level Chicago Center
Wed 08:11:11 PM 42.4044 -84.4156 116° Southeast 449 517 35,000  Level Chicago Center
Wed 08:12:13 PM 42.3381 -84.2308 116° Southeast 455 524 35,000  Level Chicago Center
Wed 08:13:15 PM 42.2831 -84.0778 116° Southeast 455 524 35,000  Level Chicago Center
Wed 08:14:17 PM 42.2256 -83.9247 117° Southeast 458 527 35,000  Level Chicago Center
Wed 08:15:19 PM 42.1694 -83.7753 117° Southeast 449 517 35,000  Level Chicago Center
Wed 08:16:22 PM 42.1033 -83.6197 120° Southeast 449 517 35,000  Level Cleveland Center
Wed 08:17:22 PM 42.0467 -83.4661 116° Southeast 454 522 35,000  Level Cleveland Center
Wed 08:18:22 PM 41.9714 -83.3119 123° Southeast 454 522 35,000  Level Cleveland Center
Wed 08:19:22 PM 41.9053 -83.1919 126° Southeast 454 522 35,000  Level Cleveland Center
Wed 08:20:22 PM 41.8333 -83.0550 125° Southeast 454 522 35,000  Level Cleveland Center
Wed 08:21:23 PM 41.7653 -82.9217 124° Southeast 449 517 35,000  Level Cleveland Center
Wed 08:22:23 PM 41.6928 -82.7883 126° Southeast 444 511 35,000  Level Cleveland Center
Wed 08:23:23 PM 41.6183 -82.6469 125° Southeast 437 503 35,000  Level Cleveland Center
Wed 08:24:23 PM 41.5456 -82.5142 126° Southeast 442 509 35,000  Level Cleveland Center
Wed 08:25:23 PM 41.4747 -82.3817 125° Southeast 442 509 35,000  Level Cleveland Center
Wed 08:26:23 PM 41.4017 -82.2442 125° Southeast 447 514 35,000  Level Cleveland Center
Wed 08:27:22 PM 41.3158 -82.1258 134° Southeast 447 514 35,000  Level Cleveland Center
Wed 08:28:22 PM 41.2233 -82.0158 138° Southeast 447 514 35,000  Level Cleveland Center
Wed 08:29:22 PM 41.1267 -81.9172 142° Southeast 447 514 35,000  Level Cleveland Center
Wed 08:30:22 PM 41.0256 -81.8217 145° Southeast 452 520 35,000  Level Cleveland Center
Wed 08:31:23 PM 40.9267 -81.7236 143° Southeast 440 506 35,000  Level Cleveland Center
Wed 08:32:22 PM 40.8294 -81.6258 143° Southeast 440 506 35,000  Level Cleveland Center
Wed 08:33:23 PM 40.7428 -81.5394 143° Southeast 435 501 35,000  Level Cleveland Center
Wed 08:34:23 PM 40.6456 -81.4422 143° Southeast 435 501 35,000  Level Cleveland Center
Wed 08:35:22 PM 40.5442 -81.3317 140° Southeast 435 501 35,000  Level Cleveland Center
Wed 08:36:22 PM 40.4467 -81.2378 144° Southeast 430 495 35,000  Level Cleveland Center
Wed 08:37:23 PM 40.3575 -81.1497 143° Southeast 437 503 35,000 -298 Level Cleveland Center
Wed 08:38:23 PM 40.2683 -81.0347 135° Southeast 442 509 34,400 -756 Descending Cleveland Center
Wed 08:39:22 PM 40.1958 -80.9039 126° Southeast 442 509 33,500 -700 Descending Cleveland Center
Wed 08:40:23 PM 40.1233 -80.7731 126° Southeast 447 514 33,000 -248 Descending Cleveland Center
Wed 08:41:23 PM 40.0483 -80.6372 126° Southeast 452 520 33,000  Level Cleveland Center
Wed 08:42:22 PM 39.9733 -80.5044 126° Southeast 452 520 33,000  Level Cleveland Center
Wed 08:43:23 PM 39.8961 -80.3694 127° Southeast 457 526 33,000 -99 Level Cleveland Center
Wed 08:44:23 PM 39.8206 -80.2369 127° Southeast 457 526 32,800 -504 Descending Cleveland Center
Wed 08:45:22 PM 39.7472 -80.1025 125° Southeast 457 526 32,000 -574 Descending Cleveland Center
Wed 08:47:31 PM 39.5814 -79.8164 127° Southeast 451 519 31,000 -317 Descending Washington Center
Wed 08:48:31 PM 39.5067 -79.6828 126° Southeast 456 525 31,000 -254 Level Washington Center
Wed 08:49:29 PM 39.4300 -79.5494 127° Southeast 456 525 30,500 -807 Descending Washington Center
Wed 08:50:30 PM 39.3528 -79.4164 127° Southeast 456 525 29,400 -992 Descending Washington Center
Wed 08:51:30 PM 39.2758 -79.2836 127° Southeast 456 525 28,500 -1,350 Descending Washington Center
Wed 08:52:30 PM 39.2383 -79.1422 109° East 461 531 26,700 -1,884 Descending Washington Center
Wed 08:53:31 PM 39.2261 -78.9864 96° East 433 498 24,700 -1,916 Descending Washington Center
Wed 08:54:29 PM 39.2114 -78.8383 97° East 426 490 22,900 -1,815 Descending Washington Center
Wed 08:55:30 PM 39.1967 -78.6878 97° East 426 490 21,100 -1,785 Descending Washington Center
Wed 08:56:30 PM 39.1836 -78.5478 97° East 415 478 19,300 -1,736 Descending Washington Center
Wed 08:57:31 PM 39.1681 -78.4106 98° East 396 456 17,600 -1,462 Descending Washington Center
Wed 08:58:29 PM 39.1439 -78.2867 104° East 378 435 16,400 -1,059 Descending Washington Center
Wed 08:59:30 PM 39.1150 -78.1706 108° East 354 407 15,500 -934 Descending Washington Center
Wed 09:00:31 PM 39.0861 -78.0544 108° East 342 394 14,500 -1,109 Descending Washington Center
Wed 09:01:29 PM 39.0553 -77.9386 109° East 326 375 13,300 -1,210 Descending Washington Center
Wed 09:02:30 PM 39.0300 -77.8361 108° East 326 375 12,100 -1,140 Descending Washington Center
Wed 09:03:30 PM 38.9989 -77.7178 109° East 326 375 11,000 -843 Descending Washington Center
Wed 09:04:31 PM 38.9775 -77.6289 107° East 303 349 10,400 -992 Descending Washington Center
Wed 09:05:31 PM 38.9417 -77.5211 113° Southeast 288 331 9,000 -1,385 Descending Washington Center
Wed 09:06:54 PM 38.8833 -77.4000 122° Southeast 278 320 7,100 -1,259 Descending Potomac TRACON
Wed 09:07:54 PM 38.8500 -77.3167 117° Southeast 265 305 6,000 -524 Descending Potomac TRACON
Wed 09:09:00 PM 38.8167 -77.2333 117° Southeast 261 300 6,000 -250 Level Potomac TRACON
Wed 09:09:54 PM 38.7833 -77.1500 117° Southeast 253 291 5,500 -893 Descending Potomac TRACON
Wed 09:11:01 PM 38.7167 -77.1167 159° South 221 254 4,200 -887 Descending Potomac TRACON
Wed 09:11:49 PM 38.6833 -77.0833 142° Southeast 224 258 3,800 -500 Descending Potomac TRACON

Login

Don't have an account? Register now (free) for customized features, flight alerts, and more!